РПИ Бишкек

Руководство

Evgeny Vygornitsky*

Куратор
Инструкторы РПИ
Evgeny Vygornitsky (Supervisor)
Vitaliy Alekseyev (Instructor)
Входит в состав
Центральная Азия

Диспетчеры РПИ

Диспетчер Рейтинг Допуски *

Аэропорты РПИ

ICAO Город Название Погода
UCFM Бишкек Манас UCFM 100730Z 35002MPS 9000 NSC M07/M11 Q1036 NOSIG
UCFL Иссык-Куль Иссык-Куль UCFL 100700Z 26011G16MPS 9999 NSC 00/M30 Q1026
UCFP Каракол Каракол